createdAt,value
2019-02-05T00:01:34.943Z,11.43
2019-02-05T00:03:59.691Z,9.23
2019-02-05T00:06:24.178Z,10.00
2019-02-05T00:08:48.586Z,8.97
2019-02-05T00:11:13.077Z,7.47
2019-02-05T00:13:37.471Z,8.47
2019-02-05T00:16:02.014Z,8.93
2019-02-05T00:18:26.434Z,9.73
2019-02-05T00:20:50.835Z,8.23
2019-02-05T00:23:15.395Z,7.53
2019-02-05T00:25:39.800Z,7.70
2019-02-05T00:28:04.638Z,7.63
2019-02-05T00:30:29.111Z,7.70
2019-02-05T00:32:53.534Z,8.57
2019-02-05T00:35:17.994Z,7.23
2019-02-05T00:37:42.591Z,7.57
2019-02-05T00:40:12.792Z,7.70
2019-02-05T00:42:37.281Z,8.07
2019-02-05T00:45:01.696Z,8.53
2019-02-05T00:47:26.556Z,8.33
2019-02-05T00:49:51.362Z,10.03
2019-02-05T00:52:15.766Z,6.40
2019-02-05T00:54:40.321Z,8.53
2019-02-05T00:57:04.905Z,8.77
2019-02-05T00:59:29.328Z,8.43
2019-02-05T01:01:53.717Z,9.13
2019-02-05T01:04:18.279Z,7.33
2019-02-05T01:06:42.744Z,7.27
2019-02-05T01:09:08.985Z,8.20
2019-02-05T01:11:33.451Z,7.83
2019-02-05T01:13:59.521Z,7.60
2019-02-05T01:16:23.944Z,6.97
2019-02-05T01:18:48.334Z,7.60
2019-02-05T01:21:12.826Z,8.43
2019-02-05T01:23:37.213Z,7.97
2019-02-05T01:26:01.624Z,9.00
2019-02-05T01:28:26.019Z,6.47
2019-02-05T01:30:50.439Z,6.17
2019-02-05T01:33:14.833Z,7.90
2019-02-05T01:35:39.316Z,6.83
2019-02-05T01:38:04.133Z,7.83
2019-02-05T01:40:28.694Z,9.37
2019-02-05T01:42:53.223Z,7.53
2019-02-05T01:45:19.081Z,7.27
2019-02-05T01:47:43.766Z,7.63
2019-02-05T01:50:10.935Z,6.70
2019-02-05T01:52:35.330Z,7.10
2019-02-05T01:54:59.730Z,7.53
2019-02-05T01:57:24.148Z,7.70
2019-02-05T01:59:48.542Z,9.07
2019-02-05T02:02:13.277Z,7.47
2019-02-05T02:04:37.740Z,7.27
2019-02-05T02:07:03.209Z,7.30
2019-02-05T02:09:27.569Z,6.97
2019-02-05T02:11:51.990Z,8.63
2019-02-05T02:14:16.384Z,7.97
2019-02-05T02:16:40.806Z,10.17
2019-02-05T02:19:05.347Z,7.07
2019-02-05T02:21:29.818Z,6.83
2019-02-05T02:23:54.227Z,7.83
2019-02-05T02:26:19.063Z,8.53
2019-02-05T02:28:43.557Z,9.30
2019-02-05T02:31:08.029Z,10.43
2019-02-05T02:33:32.450Z,8.50
2019-02-05T02:35:56.983Z,9.33
2019-02-05T02:38:21.473Z,10.33
2019-02-05T02:40:45.861Z,8.03
2019-02-05T02:43:10.279Z,9.50
2019-02-05T02:45:34.678Z,9.73
2019-02-05T02:47:59.247Z,10.40
2019-02-05T02:50:24.071Z,11.43
2019-02-05T02:52:48.619Z,11.43
2019-02-05T02:55:13.177Z,10.47
2019-02-05T02:57:37.717Z,9.97
2019-02-05T03:00:02.150Z,11.90
2019-02-05T03:02:26.634Z,12.47
2019-02-05T03:04:51.153Z,11.07
2019-02-05T03:07:15.555Z,11.13
2019-02-05T03:09:39.982Z,11.73
2019-02-05T03:12:04.522Z,10.87
2019-02-05T03:14:28.934Z,10.80
2019-02-05T03:16:53.352Z,9.80
2019-02-05T03:19:18.196Z,12.10
2019-02-05T03:21:42.801Z,11.93
2019-02-05T03:24:07.274Z,11.87
2019-02-05T03:26:31.705Z,12.47
2019-02-05T03:28:56.110Z,11.43
2019-02-05T03:31:20.537Z,10.23
2019-02-05T03:33:44.955Z,11.37
2019-02-05T03:36:09.388Z,10.13
2019-02-05T03:38:33.796Z,10.53
2019-02-05T03:41:01.278Z,11.20
2019-02-05T03:43:25.869Z,11.83
2019-02-05T03:45:50.432Z,12.13
2019-02-05T03:48:16.084Z,12.83
2019-02-05T03:50:43.714Z,11.03
2019-02-05T03:53:11.164Z,10.83
2019-02-05T03:55:50.405Z,12.10
2019-02-05T03:58:17.850Z,12.40
2019-02-05T04:00:48.245Z,13.97
2019-02-05T04:03:35.122Z,13.00
2019-02-05T04:06:05.436Z,10.10
2019-02-05T04:08:35.737Z,12.83
2019-02-05T04:11:11.983Z,12.40
2019-02-05T04:13:55.779Z,13.27
2019-02-05T04:16:45.429Z,12.47
2019-02-05T04:19:33.917Z,11.87
2019-02-05T04:22:25.178Z,11.23
2019-02-05T04:25:01.318Z,11.23
2019-02-05T04:27:44.992Z,10.67
2019-02-05T04:30:09.646Z,12.00
2019-02-05T04:32:51.733Z,12.67
2019-02-05T04:35:33.313Z,12.10
2019-02-05T04:38:12.661Z,11.93
2019-02-05T04:41:08.449Z,12.57
2019-02-05T04:43:51.039Z,12.50
2019-02-05T04:46:40.307Z,12.67
2019-02-05T04:49:24.265Z,12.27
2019-02-05T04:52:09.560Z,13.93
2019-02-05T04:54:37.023Z,13.47
2019-02-05T04:57:10.112Z,12.87
2019-02-05T04:59:49.723Z,18.40
2019-02-05T05:02:24.139Z,14.30
2019-02-05T05:04:54.674Z,14.50
2019-02-05T05:07:27.819Z,12.83
2019-02-05T05:09:54.667Z,13.50
2019-02-05T05:12:19.492Z,14.33
2019-02-05T05:14:43.960Z,13.37
2019-02-05T05:17:08.493Z,12.43
2019-02-05T05:19:33.524Z,13.67
2019-02-05T05:21:58.193Z,14.20
2019-02-05T05:24:22.855Z,13.27
2019-02-05T05:26:47.514Z,15.10
2019-02-05T05:29:12.058Z,15.63
2019-02-05T05:31:36.636Z,16.80
2019-02-05T05:34:01.181Z,16.53
2019-02-05T05:36:25.697Z,15.67
2019-02-05T05:38:50.108Z,14.20
2019-02-05T05:41:14.793Z,12.90
2019-02-05T05:43:39.237Z,13.27
2019-02-05T05:46:03.716Z,15.03
2019-02-05T05:48:28.226Z,16.60
2019-02-05T05:50:52.700Z,16.37
2019-02-05T05:53:17.128Z,16.67
2019-02-05T05:55:41.749Z,20.30
2019-02-05T05:58:06.327Z,17.27
2019-02-05T06:00:30.793Z,14.90
2019-02-05T06:02:55.368Z,17.63
2019-02-05T06:05:20.116Z,18.30
2019-02-05T06:07:44.898Z,17.17
2019-02-05T06:10:12.967Z,16.37
2019-02-05T06:12:37.417Z,18.50
2019-02-05T06:15:01.834Z,22.17
2019-02-05T06:17:26.399Z,18.07
2019-02-05T06:19:50.897Z,16.90
2019-02-05T06:22:15.311Z,18.63
2019-02-05T06:24:39.806Z,20.20
2019-02-05T06:27:04.455Z,19.87
2019-02-05T06:29:28.877Z,21.27
2019-02-05T06:31:53.471Z,21.93
2019-02-05T06:34:18.266Z,20.63
2019-02-05T06:36:42.743Z,20.47
2019-02-05T06:39:08.319Z,23.30
2019-02-05T06:41:32.718Z,23.03
2019-02-05T06:43:57.142Z,22.90
2019-02-05T06:46:21.576Z,23.83
2019-02-05T06:48:46.061Z,26.70
2019-02-05T06:51:10.553Z,25.33
2019-02-05T06:53:34.977Z,24.07
2019-02-05T06:55:59.395Z,21.97
2019-02-05T06:58:23.819Z,22.33
2019-02-05T07:00:49.831Z,23.87
2019-02-05T07:03:14.582Z,22.97
2019-02-05T07:05:39.048Z,24.20
2019-02-05T07:08:03.558Z,23.13
2019-02-05T07:10:28.065Z,28.03
2019-02-05T07:12:52.658Z,24.40
2019-02-05T07:15:17.158Z,23.67
2019-02-05T07:17:49.388Z,25.37
2019-02-05T07:20:13.062Z,24.67
2019-02-05T07:22:37.563Z,22.47
2019-02-05T07:25:01.999Z,26.03
2019-02-05T07:27:26.726Z,25.33
2019-02-05T07:29:51.152Z,26.70
2019-02-05T07:32:15.738Z,27.33
2019-02-05T07:34:40.143Z,27.67
2019-02-05T07:37:04.907Z,26.70
2019-02-05T07:39:29.359Z,28.80
2019-02-05T07:41:53.797Z,27.10
2019-02-05T07:44:18.291Z,27.63
2019-02-05T07:46:42.820Z,26.60
2019-02-05T07:49:07.281Z,26.37
2019-02-05T07:51:31.712Z,24.80
2019-02-05T07:53:56.163Z,26.13
2019-02-05T07:56:20.586Z,25.70
2019-02-05T07:58:45.121Z,23.90
2019-02-05T08:01:09.904Z,27.33
2019-02-05T08:03:34.387Z,24.80
2019-02-05T08:05:58.827Z,27.23
2019-02-05T08:08:23.600Z,30.10
2019-02-05T08:10:48.220Z,25.10
2019-02-05T08:13:12.797Z,27.97
2019-02-05T08:15:37.249Z,24.77
2019-02-05T08:18:02.022Z,26.67
2019-02-05T08:20:26.550Z,27.27
2019-02-05T08:22:51.212Z,27.87
2019-02-05T08:25:15.956Z,29.60
2019-02-05T08:27:40.465Z,27.37
2019-02-05T08:30:07.974Z,27.97
2019-02-05T08:32:34.167Z,29.67
2019-02-05T08:34:58.709Z,28.00
2019-02-05T08:37:23.149Z,31.27
2019-02-05T08:39:47.582Z,30.87
2019-02-05T08:42:12.112Z,26.70
2019-02-05T08:44:36.537Z,26.53
2019-02-05T08:47:00.988Z,31.33
2019-02-05T08:49:25.419Z,27.30
2019-02-05T08:51:49.897Z,29.07
2019-02-05T08:54:14.321Z,26.60
2019-02-05T08:56:38.848Z,26.43
2019-02-05T08:59:03.363Z,32.20
2019-02-05T09:01:27.884Z,26.27
2019-02-05T09:03:52.710Z,26.23
2019-02-05T09:06:17.248Z,26.60
2019-02-05T09:08:41.679Z,27.93
2019-02-05T09:11:06.271Z,27.83
2019-02-05T09:13:30.774Z,26.57
2019-02-05T09:15:55.201Z,22.93
2019-02-05T09:18:19.737Z,27.87
2019-02-05T09:20:44.244Z,28.03
2019-02-05T09:23:08.773Z,25.57
2019-02-05T09:25:33.344Z,26.03
2019-02-05T09:27:57.972Z,26.63
2019-02-05T09:30:27.323Z,27.90
2019-02-05T09:32:54.473Z,24.97
2019-02-05T09:35:18.963Z,27.23
2019-02-05T09:37:43.585Z,25.70
2019-02-05T09:40:13.947Z,26.80
2019-02-05T09:42:38.475Z,25.67
2019-02-05T09:45:02.969Z,23.13
2019-02-05T09:47:27.425Z,25.70
2019-02-05T09:49:51.927Z,24.77
2019-02-05T09:52:16.395Z,25.20
2019-02-05T09:54:40.899Z,23.10
2019-02-05T09:57:05.923Z,22.77
2019-02-05T09:59:30.374Z,21.37
2019-02-05T10:01:54.877Z,22.43
2019-02-05T10:04:19.335Z,22.20
2019-02-05T10:06:43.761Z,25.27
2019-02-05T10:09:08.770Z,21.37
2019-02-05T10:11:33.204Z,21.40
2019-02-05T10:13:57.666Z,23.13
2019-02-05T10:16:22.094Z,23.40
2019-02-05T10:18:46.560Z,25.00
2019-02-05T10:21:11.234Z,23.60
2019-02-05T10:23:35.810Z,20.33
2019-02-05T10:26:00.740Z,21.47
2019-02-05T10:28:25.364Z,21.90
2019-02-05T10:30:49.882Z,20.67
2019-02-05T10:33:14.389Z,21.10
2019-02-05T10:35:38.993Z,22.63
2019-02-05T10:38:03.754Z,24.17
2019-02-05T10:40:28.424Z,22.50
2019-02-05T10:42:53.200Z,20.57
2019-02-05T10:45:19.672Z,22.10
2019-02-05T10:47:44.202Z,22.97
2019-02-05T10:50:11.498Z,19.47
2019-02-05T10:52:36.405Z,21.27
2019-02-05T10:55:00.878Z,19.67
2019-02-05T10:57:25.443Z,21.50
2019-02-05T10:59:49.878Z,21.30
2019-02-05T11:02:14.475Z,23.00
2019-02-05T11:04:39.045Z,20.37
2019-02-05T11:07:03.588Z,20.60
2019-02-05T11:09:28.091Z,19.40
2019-02-05T11:11:52.626Z,19.83
2019-02-05T11:14:17.126Z,20.37
2019-02-05T11:16:41.566Z,20.83
2019-02-05T11:19:06.351Z,19.10
2019-02-05T11:21:31.065Z,19.73
2019-02-05T11:23:55.692Z,15.77
2019-02-05T11:26:20.192Z,19.70
2019-02-05T11:28:44.656Z,18.20
2019-02-05T11:31:09.235Z,17.70
2019-02-05T11:33:33.700Z,16.67
2019-02-05T11:35:58.205Z,20.13
2019-02-05T11:38:22.687Z,18.07
2019-02-05T11:40:47.453Z,17.17
2019-02-05T11:43:11.981Z,19.80
2019-02-05T11:45:36.662Z,20.33
2019-02-05T11:48:02.525Z,18.53
2019-02-05T11:50:27.502Z,17.13
2019-02-05T11:52:52.272Z,18.13
2019-02-05T11:55:19.067Z,19.10
2019-02-05T11:57:43.571Z,18.67
2019-02-05T12:00:12.313Z,18.80
2019-02-05T12:02:36.828Z,21.30
2019-02-05T12:05:01.281Z,18.43
2019-02-05T12:07:25.784Z,21.03
2019-02-05T12:09:50.362Z,18.03
2019-02-05T12:12:14.827Z,21.87
2019-02-05T12:14:39.327Z,22.17
2019-02-05T12:17:03.781Z,18.67
2019-02-05T12:19:28.599Z,18.03
2019-02-05T12:21:53.205Z,18.27
2019-02-05T12:24:17.703Z,21.47
2019-02-05T12:26:42.321Z,22.13
2019-02-05T12:29:06.886Z,24.40
2019-02-05T12:31:31.420Z,20.33
2019-02-05T12:33:55.855Z,20.90
2019-02-05T12:36:20.386Z,22.43
2019-02-05T12:38:47.589Z,20.90
2019-02-05T12:41:14.266Z,23.40
2019-02-05T12:43:38.775Z,19.70
2019-02-05T12:46:03.624Z,19.03
2019-02-05T12:48:28.065Z,20.67
2019-02-05T12:50:52.573Z,24.47
2019-02-05T12:53:17.246Z,20.73
2019-02-05T12:55:41.756Z,21.40
2019-02-05T12:58:06.870Z,18.30
2019-02-05T13:00:39.962Z,20.37
2019-02-05T13:03:04.753Z,19.87
2019-02-05T13:05:29.736Z,18.47
2019-02-05T13:07:54.617Z,17.10
2019-02-05T13:10:24.916Z,18.93
2019-02-05T13:12:49.464Z,20.07
2019-02-05T13:15:14.121Z,21.30
2019-02-05T13:17:38.553Z,16.93
2019-02-05T13:20:04.598Z,19.60
2019-02-05T13:22:29.115Z,19.40
2019-02-05T13:24:53.640Z,20.13
2019-02-05T13:27:18.235Z,21.90
2019-02-05T13:29:43.091Z,17.60
2019-02-05T13:32:07.664Z,19.63
2019-02-05T13:34:32.117Z,19.40
2019-02-05T13:36:56.631Z,13.60
2019-02-05T13:39:21.094Z,16.20
2019-02-05T13:41:45.532Z,15.37
2019-02-05T13:44:10.053Z,14.73
2019-02-05T13:46:34.560Z,13.53
2019-02-05T13:48:59.035Z,16.67
2019-02-05T13:51:25.182Z,14.73
2019-02-05T13:53:49.976Z,13.97
2019-02-05T13:56:17.656Z,19.23
2019-02-05T13:58:42.241Z,18.37
2019-02-05T14:01:06.947Z,16.40
2019-02-05T14:03:31.460Z,16.47
2019-02-05T14:05:55.993Z,20.37
2019-02-05T14:08:20.520Z,16.30
2019-02-05T14:10:46.935Z,16.83
2019-02-05T14:13:11.511Z,17.17
2019-02-05T14:15:38.768Z,16.10
2019-02-05T14:18:03.633Z,16.17
2019-02-05T14:20:28.167Z,14.90
2019-02-05T14:22:52.602Z,18.20
2019-02-05T14:25:17.805Z,16.83
2019-02-05T14:27:42.324Z,19.10
2019-02-05T14:30:30.578Z,19.80
2019-02-05T14:32:55.153Z,16.57
2019-02-05T14:35:20.006Z,19.97
2019-02-05T14:37:44.466Z,16.27
2019-02-05T14:40:11.963Z,16.70
2019-02-05T14:42:36.429Z,16.73
2019-02-05T14:45:00.925Z,19.13
2019-02-05T14:47:28.926Z,17.83
2019-02-05T14:49:53.369Z,17.67
2019-02-05T14:52:17.869Z,16.67
2019-02-05T14:54:42.458Z,16.63
2019-02-05T14:57:07.377Z,19.93
2019-02-05T14:59:31.843Z,19.70
2019-02-05T15:01:56.357Z,22.40
2019-02-05T15:04:20.887Z,19.77
2019-02-05T15:06:45.380Z,17.53
2019-02-05T15:09:09.967Z,17.47
2019-02-05T15:11:34.512Z,17.23
2019-02-05T15:13:59.020Z,19.97
2019-02-05T15:16:23.526Z,18.60
2019-02-05T15:18:47.989Z,18.17
2019-02-05T15:21:12.877Z,17.00
2019-02-05T15:23:37.354Z,18.97
2019-02-05T15:26:01.811Z,18.17
2019-02-05T15:28:26.289Z,21.53
2019-02-05T15:30:50.778Z,17.87
2019-02-05T15:33:36.118Z,18.87
2019-02-05T15:36:02.265Z,20.17
2019-02-05T15:38:27.175Z,17.90
2019-02-05T15:40:51.682Z,21.17
2019-02-05T15:43:16.265Z,20.13
2019-02-05T15:45:40.766Z,20.53
2019-02-05T15:48:05.367Z,21.07
2019-02-05T15:50:29.792Z,19.83
2019-02-05T15:52:54.330Z,19.93
2019-02-05T15:55:20.980Z,19.57
2019-02-05T15:57:45.073Z,19.53
2019-02-05T16:00:20.329Z,18.53
2019-02-05T16:02:44.922Z,19.77
2019-02-05T16:05:11.536Z,22.63
2019-02-05T16:07:35.977Z,19.83
2019-02-05T16:10:00.481Z,18.47
2019-02-05T16:12:24.900Z,21.60
2019-02-05T16:14:49.385Z,20.97
2019-02-05T16:17:13.904Z,20.80
2019-02-05T16:19:38.377Z,20.73
2019-02-05T16:22:03.216Z,21.27
2019-02-05T16:24:27.695Z,21.73
2019-02-05T16:26:52.145Z,20.20
2019-02-05T16:29:16.653Z,23.83
2019-02-05T16:31:41.139Z,21.87
2019-02-05T16:34:05.704Z,22.50
2019-02-05T16:36:30.272Z,21.57
2019-02-05T16:38:54.714Z,23.53
2019-02-05T16:41:19.327Z,22.03
2019-02-05T16:43:43.769Z,22.80
2019-02-05T16:46:08.331Z,22.40
2019-02-05T16:48:33.039Z,23.63
2019-02-05T16:50:57.520Z,20.00
2019-02-05T16:53:22.092Z,24.50
2019-02-05T16:55:46.594Z,22.73
2019-02-05T16:58:11.160Z,21.27
2019-02-05T17:00:39.568Z,22.30
2019-02-05T17:03:04.590Z,20.50
2019-02-05T17:05:31.053Z,19.50
2019-02-05T17:07:55.684Z,22.87
2019-02-05T17:10:22.520Z,20.77
2019-02-05T17:12:47.204Z,22.00
2019-02-05T17:15:14.004Z,21.63
2019-02-05T17:17:38.475Z,23.03
2019-02-05T17:20:02.991Z,22.63
2019-02-05T17:22:27.503Z,23.63
2019-02-05T17:24:52.025Z,19.27
2019-02-05T17:27:16.532Z,21.87
2019-02-05T17:29:40.997Z,24.07
2019-02-05T17:32:07.751Z,23.60
2019-02-05T17:34:31.953Z,20.00
2019-02-05T17:36:56.492Z,20.17
2019-02-05T17:39:21.055Z,22.50
2019-02-05T17:41:45.589Z,23.40
2019-02-05T17:44:10.142Z,21.70
2019-02-05T17:46:34.658Z,24.80
2019-02-05T17:48:59.146Z,25.67
2019-02-05T17:51:23.657Z,24.43
2019-02-05T17:53:48.214Z,25.17
2019-02-05T17:56:12.783Z,24.47
2019-02-05T17:58:37.287Z,25.07
2019-02-05T18:01:03.600Z,28.43
2019-02-05T18:03:28.037Z,26.13
2019-02-05T18:05:52.508Z,25.40
2019-02-05T18:08:17.012Z,23.53
2019-02-05T18:10:42.116Z,29.17
2019-02-05T18:13:06.751Z,27.80
2019-02-05T18:15:36.093Z,21.93
2019-02-05T18:18:00.619Z,24.97
2019-02-05T18:20:25.229Z,26.83
2019-02-05T18:22:50.023Z,23.47
2019-02-05T18:25:19.288Z,28.03
2019-02-05T18:27:43.903Z,28.70
2019-02-05T18:30:11.426Z,26.20
2019-02-05T18:32:36.025Z,28.53
2019-02-05T18:35:00.532Z,26.60
2019-02-05T18:37:25.149Z,26.87
2019-02-05T18:39:49.688Z,29.60
2019-02-05T18:42:14.174Z,28.63
2019-02-05T18:44:39.025Z,32.53
2019-02-05T18:47:07.568Z,31.43
2019-02-05T18:49:32.000Z,33.10
2019-02-05T18:51:56.545Z,34.93
2019-02-05T18:54:21.000Z,29.20
2019-02-05T18:56:45.546Z,31.60
2019-02-05T18:59:10.061Z,36.03
2019-02-05T19:01:34.539Z,35.90
2019-02-05T19:03:59.065Z,41.00
2019-02-05T19:06:23.565Z,51.93
2019-02-05T19:08:48.450Z,50.77
2019-02-05T19:11:13.061Z,46.17
2019-02-05T19:13:37.689Z,52.53
2019-02-05T19:16:02.267Z,47.00
2019-02-05T19:18:26.859Z,54.67
2019-02-05T19:20:51.372Z,43.70
2019-02-05T19:23:15.929Z,43.43
2019-02-05T19:25:54.029Z,41.57
2019-02-05T19:28:23.245Z,45.13
2019-02-05T19:30:49.337Z,45.47
2019-02-05T19:33:13.891Z,44.53
2019-02-05T19:35:38.402Z,43.73
2019-02-05T19:38:02.954Z,47.03
2019-02-05T19:40:27.551Z,48.47
2019-02-05T19:42:52.194Z,47.83
2019-02-05T19:45:21.733Z,53.60
2019-02-05T19:47:46.336Z,46.77
2019-02-05T19:50:11.043Z,47.13
2019-02-05T19:52:35.862Z,47.27
2019-02-05T19:55:00.418Z,47.83
2019-02-05T19:57:24.935Z,53.17
2019-02-05T19:59:49.666Z,52.97
2019-02-05T20:02:14.197Z,50.13
2019-02-05T20:04:38.740Z,52.27
2019-02-05T20:07:03.266Z,58.03
2019-02-05T20:09:27.802Z,51.97
2019-02-05T20:11:52.250Z,50.23
2019-02-05T20:14:16.761Z,51.80
2019-02-05T20:16:41.324Z,52.00
2019-02-05T20:19:05.914Z,49.77
2019-02-05T20:21:31.989Z,51.00
2019-02-05T20:23:56.734Z,54.17
2019-02-05T20:26:21.278Z,45.80
2019-02-05T20:28:45.742Z,47.47
2019-02-05T20:31:10.365Z,54.17
2019-02-05T20:33:34.823Z,46.50
2019-02-05T20:35:59.312Z,47.17
2019-02-05T20:38:23.759Z,48.73
2019-02-05T20:40:48.242Z,47.23
2019-02-05T20:43:12.754Z,48.80
2019-02-05T20:45:37.484Z,47.33
2019-02-05T20:48:01.954Z,47.13
2019-02-05T20:50:26.459Z,44.10
2019-02-05T20:52:54.144Z,45.43
2019-02-05T20:55:21.638Z,47.43
2019-02-05T20:57:46.180Z,44.93
2019-02-05T21:00:16.357Z,41.60
2019-02-05T21:02:40.882Z,45.20
2019-02-05T21:05:08.856Z,44.50
2019-02-05T21:07:33.330Z,42.47
2019-02-05T21:09:57.773Z,42.40
2019-02-05T21:12:22.247Z,38.47
2019-02-05T21:14:46.696Z,36.80
2019-02-05T21:17:11.330Z,39.83
2019-02-05T21:19:35.774Z,34.10
2019-02-05T21:22:00.387Z,36.40
2019-02-05T21:24:24.813Z,35.77
2019-02-05T21:26:49.339Z,35.13
2019-02-05T21:29:13.847Z,37.33
2019-02-05T21:31:38.446Z,44.70
2019-02-05T21:34:14.859Z,40.20
2019-02-05T21:36:29.129Z,33.23
2019-02-05T21:38:53.650Z,32.30
2019-02-05T21:41:18.127Z,31.47
2019-02-05T21:43:42.740Z,35.77
2019-02-05T21:46:07.327Z,31.93
2019-02-05T21:48:31.793Z,33.70
2019-02-05T21:50:56.227Z,31.13
2019-02-05T21:53:20.695Z,31.23
2019-02-05T21:55:45.196Z,30.53
2019-02-05T21:58:12.445Z,30.50
2019-02-05T22:00:36.648Z,32.47
2019-02-05T22:03:01.109Z,31.33
2019-02-05T22:05:26.354Z,36.20
2019-02-05T22:07:50.800Z,38.07
2019-02-05T22:10:16.090Z,31.67
2019-02-05T22:12:40.680Z,30.13
2019-02-05T22:15:13.647Z,32.23
2019-02-05T22:17:38.121Z,29.20
2019-02-05T22:20:02.827Z,33.67
2019-02-05T22:22:27.371Z,30.13
2019-02-05T22:24:51.841Z,27.00
2019-02-05T22:27:16.321Z,29.47
2019-02-05T22:29:40.838Z,28.93
2019-02-05T22:32:05.448Z,33.77
2019-02-05T22:34:38.747Z,28.10
2019-02-05T22:36:56.147Z,31.27
2019-02-05T22:39:20.657Z,29.83
2019-02-05T22:41:45.137Z,28.90
2019-02-05T22:44:09.623Z,30.80
2019-02-05T22:46:34.420Z,31.43
2019-02-05T22:48:58.891Z,29.10
2019-02-05T22:51:23.300Z,27.70
2019-02-05T22:53:47.755Z,28.80
2019-02-05T22:56:12.274Z,26.07
2019-02-05T22:58:37.024Z,29.57
2019-02-05T23:01:16.333Z,29.83
2019-02-05T23:03:46.646Z,27.80
2019-02-05T23:06:32.389Z,30.57
2019-02-05T23:09:00.085Z,28.30
2019-02-05T23:11:42.229Z,30.10
2019-02-05T23:14:06.854Z,30.43
2019-02-05T23:16:31.365Z,29.37
2019-02-05T23:18:55.895Z,31.40
2019-02-05T23:21:20.317Z,29.47
2019-02-05T23:23:44.820Z,32.33
2019-02-05T23:26:11.084Z,32.23
2019-02-05T23:28:35.488Z,32.33
2019-02-05T23:31:00.056Z,33.90
2019-02-05T23:33:24.541Z,29.90
2019-02-05T23:35:50.273Z,28.80
2019-02-05T23:38:14.626Z,33.10
2019-02-05T23:40:39.147Z,31.00
2019-02-05T23:43:03.895Z,27.50
2019-02-05T23:45:28.421Z,30.40
2019-02-05T23:47:52.828Z,29.80
2019-02-05T23:50:17.674Z,29.97
2019-02-05T23:52:42.698Z,29.30
2019-02-05T23:55:10.276Z,35.23
2019-02-05T23:57:34.678Z,29.33
2019-02-05T23:59:59.081Z,30.27
